Time;durP1;ratioP1;P1;durP2;ratioP2;P2;SDS_P1;SDS_P2;PMS_P1;PMS_P2;Temp;Humidity;BMP_temperature;BMP_pressure;BME280_temperature;BME280_humidity;BME280_pressure;Samples;Min_cycle;Max_cycle;Signal;HPM_P1;HPM_P2
2023/06/05 00:00:40;;;;;;;7.38;4.15;;;14.60;90.30;;;;;;6240211;23;20003;-70
2023/06/05 00:03:06;;;;;;;6.22;4.50;;;14.60;90.50;;;;;;6240221;23;20027;-70
2023/06/05 00:05:31;;;;;;;8.35;4.75;;;14.60;90.70;;;;;;6240979;23;20005;-70
2023/06/05 00:07:57;;;;;;;9.52;4.53;;;14.50;90.70;;;;;;6240645;23;20008;-70
2023/06/05 00:10:23;;;;;;;7.45;4.32;;;14.50;90.80;;;;;;6239314;23;20007;-70
2023/06/05 00:12:49;;;;;;;5.65;4.38;;;14.40;90.90;;;;;;6240741;23;20388;-70
2023/06/05 00:15:15;;;;;;;4.03;3.63;;;14.40;91.10;;;;;;6242697;23;20319;-70
2023/06/05 00:17:41;;;;;;;5.78;3.72;;;14.30;91.20;;;;;;6242934;23;20178;-70
2023/06/05 00:20:09;;;;;;;5.38;4.22;;;14.30;91.20;;;;;;6243218;23;19996;-70
2023/06/05 00:22:34;;;;;;;4.15;3.75;;;14.30;91.40;;;;;;6215890;23;20027;-70
2023/06/05 00:25:00;;;;;;;5.47;4.63;;;14.20;91.50;;;;;;6242896;23;20004;-70
2023/06/05 00:27:26;;;;;;;6.50;4.43;;;14.20;91.50;;;;;;6241525;23;20465;-70
2023/06/05 00:29:51;;;;;;;4.57;3.88;;;14.20;91.70;;;;;;6242841;23;20000;-70
2023/06/05 00:32:17;;;;;;;9.30;4.70;;;14.10;91.80;;;;;;6242557;23;20011;-70
2023/06/05 00:34:42;;;;;;;6.93;4.43;;;14.10;91.90;;;;;;6242907;23;20064;-70
2023/06/05 00:37:09;;;;;;;6.68;4.72;;;14.10;92.00;;;;;;6242863;23;20004;-70
2023/06/05 00:39:34;;;;;;;5.22;4.63;;;14.00;92.10;;;;;;6242799;23;19996;-70
2023/06/05 00:42:00;;;;;;;7.57;4.50;;;14.00;92.30;;;;;;6241986;23;20007;-70
2023/06/05 00:44:25;;;;;;;5.63;4.50;;;14.00;92.30;;;;;;6242548;23;19993;-70
2023/06/05 00:46:52;;;;;;;8.48;5.50;;;14.00;92.40;;;;;;6242486;23;20115;-70
2023/06/05 00:49:18;;;;;;;9.73;5.47;;;13.90;92.40;;;;;;6242524;23;20001;-70
2023/06/05 00:51:45;;;;;;;6.43;5.78;;;13.90;92.60;;;;;;6242552;23;20012;-70
2023/06/05 00:54:13;;;;;;;7.90;5.05;;;13.90;92.70;;;;;;6242420;23;20005;-70
2023/06/05 00:56:40;;;;;;;8.48;5.00;;;13.90;92.80;;;;;;6241924;23;20053;-69
2023/06/05 00:59:07;;;;;;;5.97;4.53;;;13.90;92.80;;;;;;6242652;23;20034;-70
2023/06/05 01:01:34;;;;;;;7.03;5.75;;;13.80;93.00;;;;;;6215470;23;20030;-70
2023/06/05 01:04:02;;;;;;;7.18;4.78;;;13.80;93.10;;;;;;6242440;23;20054;-70
2023/06/05 01:06:30;;;;;;;7.50;5.28;;;13.80;93.20;;;;;;6242204;23;20319;-70
2023/06/05 01:08:57;;;;;;;6.25;5.10;;;13.70;93.20;;;;;;6242482;23;20425;-70
2023/06/05 01:11:41;;;;;;;8.88;6.28;;;13.70;93.30;;;;;;6241937;23;20008;-70
2023/06/05 01:14:34;;;;;;;7.25;5.15;;;13.70;93.70;;;;;;6242771;23;20016;-70
2023/06/05 01:17:02;;;;;;;6.95;5.30;;;13.60;93.80;;;;;;6237320;23;20008;-70
2023/06/05 01:19:30;;;;;;;8.68;5.93;;;13.60;93.80;;;;;;6242355;23;20008;-69
2023/06/05 01:21:56;;;;;;;6.82;5.82;;;13.60;93.90;;;;;;6242261;23;20081;-70
2023/06/05 01:24:22;;;;;;;7.57;5.95;;;13.50;94.00;;;;;;6242129;23;20782;-70
2023/06/05 01:27:08;;;;;;;10.05;6.40;;;13.50;94.10;;;;;;6240703;23;20019;-69
2023/06/05 01:29:37;;;;;;;10.40;6.10;;;13.50;94.30;;;;;;6240802;23;20000;-70
2023/06/05 01:32:12;;;;;;;6.13;5.25;;;13.50;94.30;;;;;;6240856;23;19992;-69
2023/06/05 01:34:43;;;;;;;9.70;6.45;;;13.50;94.40;;;;;;6240834;23;20054;-69
2023/06/05 01:37:12;;;;;;;7.15;5.97;;;13.40;94.50;;;;;;6240834;23;20001;-69
2023/06/05 01:39:40;;;;;;;8.65;6.72;;;13.40;94.50;;;;;;6240179;23;20422;-69
2023/06/05 01:42:07;;;;;;;8.32;6.88;;;13.40;94.70;;;;;;6240761;23;20004;-69
2023/06/05 01:44:33;;;;;;;9.02;6.85;;;13.30;94.80;;;;;;6240881;23;20000;-70
2023/06/05 01:46:59;;;;;;;10.70;6.95;;;13.30;95.00;;;;;;6213743;23;20007;-70
2023/06/05 01:49:25;;;;;;;7.43;6.18;;;13.30;95.10;;;;;;6240681;23;19996;-69
2023/06/05 01:51:51;;;;;;;8.18;7.00;;;13.30;95.20;;;;;;6240535;23;20008;-70
2023/06/05 01:54:18;;;;;;;10.70;6.32;;;13.20;95.40;;;;;;6213294;23;20022;-70
2023/06/05 01:56:44;;;;;;;8.23;6.80;;;13.20;95.40;;;;;;6240529;23;20026;-69
2023/06/05 01:59:09;;;;;;;13.38;8.10;;;13.20;95.50;;;;;;6240929;23;20028;-70
2023/06/05 02:01:35;;;;;;;7.00;6.28;;;13.10;96.00;;;;;;6240526;23;20039;-69
2023/06/05 02:04:04;;;;;;;6.68;5.65;;;13.10;95.80;;;;;;6213778;23;19996;-69
2023/06/05 02:06:44;;;;;;;7.85;7.05;;;13.10;95.90;;;;;;6213818;23;20023;-69
2023/06/05 02:09:12;;;;;;;10.57;7.70;;;13.00;96.10;;;;;;6213335;23;20334;-70
2023/06/05 02:11:39;;;;;;;10.20;7.35;;;12.90;96.20;;;;;;6240497;23;20003;-70
2023/06/05 02:14:12;;;;;;;9.40;6.95;;;12.90;96.30;;;;;;6240735;23;20000;-69
2023/06/05 02:16:37;;;;;;;11.53;8.40;;;12.80;96.50;;;;;;6240617;23;20112;-70
2023/06/05 02:19:03;;;;;;;9.40;7.57;;;12.90;96.60;;;;;;6240834;23;20251;-70
2023/06/05 02:21:32;;;;;;;11.15;8.27;;;12.90;96.70;;;;;;6240417;23;20004;-69
2023/06/05 02:23:59;;;;;;;10.73;7.53;;;12.90;97.10;;;;;;6240022;23;20142;-70
2023/06/05 02:26:25;;;;;;;8.57;7.63;;;12.80;97.00;;;;;;6195987;23;1031477;-70
2023/06/05 02:28:53;;;;;;;10.32;8.13;;;12.80;97.10;;;;;;6241558;23;20075;-69
2023/06/05 02:31:23;;;;;;;9.60;7.97;;;12.80;97.20;;;;;;6241570;23;20000;-70
2023/06/05 02:33:53;;;;;;;11.60;9.10;;;12.70;97.40;;;;;;6241885;23;20366;-70
2023/06/05 02:36:19;;;;;;;13.73;8.23;;;12.70;97.50;;;;;;6241584;22;20087;-70
2023/06/05 02:38:45;;;;;;;9.07;8.25;;;12.70;97.60;;;;;;6241134;23;20028;-70
2023/06/05 02:41:11;;;;;;;12.65;8.70;;;12.70;97.70;;;;;;6241461;23;20008;-70
2023/06/05 02:43:37;;;;;;;11.85;9.38;;;12.70;97.80;;;;;;6241577;23;20004;-70
2023/06/05 02:46:02;;;;;;;10.55;9.45;;;12.60;98.00;;;;;;6241886;23;20023;-69
2023/06/05 02:48:28;;;;;;;13.68;10.23;;;12.60;98.40;;;;;;6241539;23;20004;-70
2023/06/05 02:50:53;;;;;;;11.50;9.30;;;12.50;98.20;;;;;;6241547;23;20384;-70
2023/06/05 02:53:20;;;;;;;10.38;8.63;;;12.50;98.40;;;;;;6241137;23;19996;-70
2023/06/05 02:55:46;;;;;;;12.50;9.50;;;12.50;98.40;;;;;;6241425;23;20000;-70
2023/06/05 02:58:12;;;;;;;11.82;8.73;;;12.50;98.70;;;;;;6241410;23;20330;-70
2023/06/05 03:00:38;;;;;;;14.95;9.18;;;12.40;98.80;;;;;;6241395;23;19997;-70
2023/06/05 03:03:06;;;;;;;11.00;8.55;;;12.40;99.00;;;;;;6241451;23;20116;-70
2023/06/05 03:05:32;;;;;;;11.13;8.98;;;12.40;99.10;;;;;;6241480;23;20019;-70
2023/06/05 03:07:57;;;;;;;10.13;9.02;;;12.40;99.30;;;;;;6240767;23;20022;-70
2023/06/05 03:10:23;;;;;;;11.38;9.38;;;12.30;99.40;;;;;;6241308;23;19996;-69
2023/06/05 03:12:49;;;;;;;13.85;9.98;;;12.30;99.50;;;;;;6241327;23;20019;-70
2023/06/05 03:15:16;;;;;;;11.57;10.38;;;12.30;99.60;;;;;;6241579;23;20000;-70
2023/06/05 03:17:42;;;;;;;13.48;10.45;;;12.30;99.70;;;;;;6214363;23;20004;-70
2023/06/05 03:20:09;;;;;;;13.02;9.20;;;12.20;99.80;;;;;;6241630;23;20437;-70
2023/06/05 03:22:35;;;;;;;11.93;9.95;;;12.20;99.90;;;;;;6240663;23;20011;-70
2023/06/05 03:25:01;;;;;;;13.40;9.75;;;12.20;99.90;;;;;;6241160;23;20000;-69
2023/06/05 03:27:26;;;;;;;12.68;9.38;;;12.20;99.90;;;;;;6241216;23;20030;-71
2023/06/05 03:29:52;;;;;;;9.63;8.65;;;12.20;99.90;;;;;;6241439;23;20468;-71
2023/06/05 03:32:17;;;;;;;11.07;9.88;;;12.20;99.90;;;;;;6214364;23;20014;-70
2023/06/05 03:34:48;;;;;;;11.88;9.40;;;12.20;99.90;;;;;;6241311;23;20076;-70
2023/06/05 03:37:14;;;;;;;13.05;10.27;;;12.20;99.90;;;;;;6240503;23;20004;-71
2023/06/05 03:39:40;;;;;;;11.30;8.82;;;12.10;99.90;;;;;;6241256;23;20004;-71
2023/06/05 03:42:10;;;;;;;11.60;9.95;;;12.10;99.90;;;;;;6241234;23;20012;-71
2023/06/05 03:44:36;;;;;;;11.50;9.75;;;12.10;99.90;;;;;;6214634;23;20422;-70
2023/06/05 03:47:02;;;;;;;13.10;10.23;;;12.10;99.90;;;;;;6240034;23;20000;-71
2023/06/05 03:49:28;;;;;;;15.02;9.80;;;12.10;99.90;;;;;;6239595;23;20549;-71
2023/06/05 03:52:00;;;;;;;10.48;9.35;;;12.10;99.90;;;;;;6213142;23;20000;-71
2023/06/05 03:54:32;;;;;;;13.82;10.30;;;12.10;99.90;;;;;;6240832;23;20028;-71
2023/06/05 03:57:00;;;;;;;14.10;11.25;;;12.10;99.90;;;;;;6242907;23;20015;-72
2023/06/05 03:59:27;;;;;;;12.23;10.35;;;12.00;99.90;;;;;;6243036;23;20202;-71
2023/06/05 04:01:53;;;;;;;11.30;9.90;;;12.10;99.90;;;;;;6242980;23;20004;-72
2023/06/05 04:04:20;;;;;;;11.85;9.80;;;12.10;99.90;;;;;;6243007;23;20058;-71
2023/06/05 04:06:46;;;;;;;13.77;10.75;;;12.10;99.90;;;;;;6242303;23;20492;-71
2023/06/05 04:09:12;;;;;;;13.10;10.30;;;12.10;99.90;;;;;;6242773;23;19996;-71
2023/06/05 04:11:43;;;;;;;13.25;9.77;;;12.10;99.90;;;;;;6215752;23;20020;-71
2023/06/05 04:14:10;;;;;;;14.05;10.32;;;12.20;99.90;;;;;;6242704;23;20127;-71
2023/06/05 04:16:42;;;;;;;10.15;9.13;;;12.10;99.90;;;;;;6243035;23;20076;-71
2023/06/05 04:19:10;;;;;;;17.02;11.13;;;12.10;99.90;;;;;;6215202;23;20038;-70
2023/06/05 04:21:37;;;;;;;13.07;10.38;;;12.10;99.90;;;;;;6243252;23;20476;-70
2023/06/05 04:24:09;;;;;;;12.10;10.50;;;12.10;99.90;;;;;;6242963;23;20004;-70
2023/06/05 04:26:39;;;;;;;13.80;11.00;;;12.10;99.90;;;;;;6242855;23;20024;-70
2023/06/05 04:29:15;;;;;;;12.00;10.27;;;12.10;99.90;;;;;;6243291;23;20311;-70
2023/06/05 04:31:45;;;;;;;15.18;10.15;;;12.20;99.90;;;;;;6215917;23;20008;-70
2023/06/05 04:34:11;;;;;;;12.88;10.27;;;12.20;99.90;;;;;;6242117;23;20004;-70
2023/06/05 04:36:36;;;;;;;14.23;11.05;;;12.20;99.90;;;;;;6243221;23;20337;-70
2023/06/05 04:39:03;;;;;;;13.73;10.63;;;12.20;99.90;;;;;;6242922;23;20000;-70
2023/06/05 04:41:33;;;;;;;19.23;10.68;;;12.20;99.90;;;;;;6242764;23;20004;-70
2023/06/05 04:43:59;;;;;;;15.20;11.02;;;12.20;99.90;;;;;;6242702;23;20402;-70
2023/06/05 04:46:26;;;;;;;12.65;11.05;;;12.20;99.90;;;;;;6242725;23;20059;-71
2023/06/05 04:48:54;;;;;;;13.57;10.27;;;12.30;99.90;;;;;;6242246;23;20008;-71
2023/06/05 04:51:20;;;;;;;14.00;10.75;;;12.30;99.90;;;;;;6242761;23;19996;-71
2023/06/05 04:53:50;;;;;;;18.35;11.32;;;12.30;99.90;;;;;;6242640;23;20011;-71
2023/06/05 04:56:16;;;;;;;14.35;10.20;;;12.30;99.90;;;;;;6242607;23;20028;-70
2023/06/05 04:58:42;;;;;;;15.43;10.48;;;12.30;99.90;;;;;;6242763;23;20004;-71
2023/06/05 05:01:08;;;;;;;14.85;10.35;;;12.30;99.90;;;;;;6242680;23;20058;-71
2023/06/05 05:03:33;;;;;;;15.02;10.50;;;12.40;99.90;;;;;;6215000;23;20050;-71
2023/06/05 05:06:00;;;;;;;13.13;10.10;;;12.40;99.90;;;;;;6242560;23;20000;-71
2023/06/05 05:08:27;;;;;;;15.05;10.20;;;12.50;99.90;;;;;;6215414;23;20051;-71
2023/06/05 05:10:53;;;;;;;14.52;10.30;;;12.50;99.90;;;;;;6242323;23;19996;-70
2023/06/05 05:13:19;;;;;;;15.15;11.02;;;12.50;99.90;;;;;;6242208;23;19996;-70
2023/06/05 05:15:45;;;;;;;13.45;10.13;;;12.50;99.90;;;;;;6242516;23;20016;-70
2023/06/05 05:18:10;;;;;;;14.27;10.43;;;12.60;99.90;;;;;;6241760;23;20083;-71
2023/06/05 05:20:39;;;;;;;13.68;10.15;;;12.60;99.90;;;;;;6242546;23;19996;-71
2023/06/05 05:23:07;;;;;;;12.65;10.02;;;12.60;99.90;;;;;;6242366;23;20444;-71
2023/06/05 05:25:33;;;;;;;13.85;11.00;;;12.70;99.90;;;;;;6242378;23;19996;-71
2023/06/05 05:27:58;;;;;;;14.23;10.65;;;12.80;99.90;;;;;;6242190;23;20016;-70
2023/06/05 05:30:24;;;;;;;17.60;11.55;;;12.80;99.90;;;;;;6242029;23;19999;-72
2023/06/05 05:32:50;;;;;;;11.77;9.73;;;12.90;99.90;;;;;;6241628;23;20079;-71
2023/06/05 05:35:16;;;;;;;10.60;9.50;;;12.90;99.90;;;;;;6242098;23;20359;-71
2023/06/05 05:37:41;;;;;;;13.23;10.63;;;13.00;99.90;;;;;;6242129;23;20008;-71
2023/06/05 05:40:07;;;;;;;12.95;9.88;;;13.00;99.90;;;;;;6241976;23;20334;-71
2023/06/05 05:42:33;;;;;;;10.13;8.30;;;13.00;99.90;;;;;;6240554;23;20075;-70
2023/06/05 05:44:58;;;;;;;13.48;9.57;;;13.00;99.90;;;;;;6240036;23;20007;-71
2023/06/05 05:47:24;;;;;;;14.32;10.02;;;13.10;99.90;;;;;;6211616;23;20475;-71
2023/06/05 05:49:49;;;;;;;13.85;9.45;;;13.10;99.90;;;;;;6240555;23;20007;-71
2023/06/05 05:52:15;;;;;;;13.57;10.23;;;13.10;99.90;;;;;;6240168;23;20329;-71
2023/06/05 05:54:41;;;;;;;11.30;10.10;;;13.20;99.90;;;;;;6241240;23;20054;-71
2023/06/05 05:57:07;;;;;;;13.98;9.25;;;13.30;99.90;;;;;;6241095;23;19996;-71
2023/06/05 05:59:32;;;;;;;11.13;8.85;;;13.30;99.90;;;;;;6242030;23;20015;-70
2023/06/05 06:01:59;;;;;;;10.40;8.50;;;13.40;99.90;;;;;;6240741;23;20008;-71
2023/06/05 06:04:24;;;;;;;12.07;10.60;;;13.40;99.90;;;;;;6241214;23;20018;-71
2023/06/05 06:06:52;;;;;;;10.68;9.45;;;13.40;99.90;;;;;;6241567;23;20004;-71
2023/06/05 06:09:18;;;;;;;14.38;10.25;;;13.50;99.90;;;;;;6241794;23;20342;-71
2023/06/05 06:11:44;;;;;;;13.32;9.25;;;13.50;99.90;;;;;;6241345;23;20471;-71
2023/06/05 06:14:10;;;;;;;12.63;9.27;;;13.50;99.90;;;;;;6242057;23;20022;-72
2023/06/05 06:16:37;;;;;;;10.27;7.95;;;13.50;99.90;;;;;;6241351;23;20365;-72
2023/06/05 06:19:04;;;;;;;11.27;9.45;;;13.60;99.90;;;;;;6241826;23;20000;-71
2023/06/05 06:21:29;;;;;;;10.38;9.23;;;13.60;99.90;;;;;;6241441;23;20075;-71
2023/06/05 06:23:55;;;;;;;10.13;7.70;;;13.60;99.90;;;;;;6241521;23;20500;-72
2023/06/05 06:26:21;;;;;;;11.68;9.25;;;13.70;99.90;;;;;;6241300;23;20488;-72
2023/06/05 06:28:46;;;;;;;9.88;8.25;;;13.70;99.80;;;;;;6241818;23;20000;-71
2023/06/05 06:31:12;;;;;;;9.93;8.90;;;13.70;99.70;;;;;;6240653;23;20012;-72
2023/06/05 06:33:38;;;;;;;8.48;7.40;;;13.80;99.50;;;;;;6241560;23;20074;-72
2023/06/05 06:36:03;;;;;;;10.65;9.00;;;13.80;99.50;;;;;;6241502;23;20362;-72
2023/06/05 06:38:31;;;;;;;13.18;9.07;;;13.90;99.40;;;;;;6241492;23;20252;-72
2023/06/05 06:40:57;;;;;;;8.52;7.43;;;14.00;99.30;;;;;;6241172;23;20039;-72
2023/06/05 06:43:23;;;;;;;11.05;9.02;;;14.00;99.20;;;;;;6241356;23;20000;-72
2023/06/05 06:45:50;;;;;;;10.55;8.40;;;14.10;98.90;;;;;;6240990;23;20000;-72
2023/06/05 06:48:16;;;;;;;9.27;7.53;;;14.20;98.90;;;;;;6214291;23;20390;-71
2023/06/05 06:50:42;;;;;;;9.70;7.28;;;14.30;98.80;;;;;;6241056;23;20023;-72
2023/06/05 06:53:08;;;;;;;13.30;8.80;;;14.40;98.70;;;;;;6241332;23;20008;-72
2023/06/05 06:55:34;;;;;;;11.85;7.07;;;14.50;98.40;;;;;;6241320;23;20005;-72
2023/06/05 06:57:59;;;;;;;11.77;8.38;;;14.50;98.10;;;;;;6241392;23;20078;-72
2023/06/05 07:00:25;;;;;;;14.35;8.77;;;14.50;97.90;;;;;;6240089;23;20000;-72
2023/06/05 07:02:51;;;;;;;14.95;7.32;;;14.60;97.90;;;;;;6239368;23;20038;-70
2023/06/05 07:05:19;;;;;;;9.10;6.97;;;14.70;97.70;;;;;;6241169;23;20075;-73
2023/06/05 07:07:45;;;;;;;11.77;7.43;;;14.80;97.60;;;;;;6239454;23;20008;-70
2023/06/05 07:10:10;;;;;;;11.90;7.07;;;14.90;97.40;;;;;;6240267;23;20004;-70
2023/06/05 07:12:36;;;;;;;9.93;6.70;;;15.00;97.20;;;;;;6239296;23;20027;-70
2023/06/05 07:15:02;;;;;;;10.75;7.20;;;15.00;97.20;;;;;;6213832;23;20047;-70
2023/06/05 07:17:29;;;;;;;12.65;6.63;;;15.10;97.00;;;;;;6240055;23;20019;-72
2023/06/05 07:19:56;;;;;;;10.90;7.82;;;15.20;96.80;;;;;;6240232;23;20000;-70
2023/06/05 07:22:24;;;;;;;7.30;5.70;;;15.20;96.60;;;;;;6241836;23;20000;-70
2023/06/05 07:24:50;;;;;;;10.55;7.47;;;15.30;96.50;;;;;;6215595;23;20395;-71
2023/06/05 07:27:16;;;;;;;6.80;6.13;;;15.40;96.30;;;;;;6243007;23;20046;-71
2023/06/05 07:29:42;;;;;;;9.80;5.85;;;15.50;96.20;;;;;;6214399;23;20003;-71
2023/06/05 07:32:08;;;;;;;7.95;5.97;;;15.50;96.10;;;;;;6243103;23;20004;-71
2023/06/05 07:34:34;;;;;;;9.32;7.88;;;15.60;95.90;;;;;;6242617;23;20004;-71
2023/06/05 07:37:01;;;;;;;12.48;6.75;;;15.70;95.50;;;;;;6243012;23;20030;-72
2023/06/05 07:39:26;;;;;;;9.10;6.60;;;15.70;95.50;;;;;;6242768;23;19996;-72
2023/06/05 07:41:52;;;;;;;9.30;7.05;;;15.80;95.50;;;;;;6240701;23;20019;-71
2023/06/05 07:44:19;;;;;;;7.82;7.07;;;15.90;95.40;;;;;;6241264;23;20034;-73
2023/06/05 07:46:46;;;;;;;11.45;6.95;;;15.90;95.00;;;;;;6242454;23;20054;-72
2023/06/05 07:49:12;;;;;;;8.77;6.40;;;16.00;95.00;;;;;;6241866;23;20438;-72
2023/06/05 07:51:39;;;;;;;12.52;6.78;;;16.10;94.90;;;;;;6240365;23;20089;-72
2023/06/05 07:54:06;;;;;;;9.55;6.35;;;16.20;94.80;;;;;;6243027;23;20103;-72
2023/06/05 07:56:33;;;;;;;9.43;6.57;;;16.30;94.70;;;;;;6241959;23;20004;-72
2023/06/05 07:59:00;;;;;;;7.07;6.40;;;16.30;94.60;;;;;;6241581;23;20000;-72
2023/06/05 08:01:26;;;;;;;8.77;7.03;;;16.50;94.60;;;;;;6241701;23;20055;-72
2023/06/05 08:03:52;;;;;;;7.47;5.35;;;16.60;94.40;;;;;;6241582;23;20031;-72
2023/06/05 08:06:17;;;;;;;7.78;6.30;;;16.60;94.30;;;;;;6241317;23;20000;-71
2023/06/05 08:08:43;;;;;;;9.50;6.28;;;16.70;94.20;;;;;;6215573;23;20299;-72
2023/06/05 08:11:09;;;;;;;11.13;7.05;;;16.70;94.00;;;;;;6241954;23;19996;-72
2023/06/05 08:13:38;;;;;;;8.68;5.97;;;16.80;93.80;;;;;;6240733;23;20006;-72
2023/06/05 08:16:03;;;;;;;8.65;6.50;;;16.80;93.80;;;;;;6242560;23;20004;-72
2023/06/05 08:18:29;;;;;;;6.15;5.28;;;16.90;93.90;;;;;;6241875;23;20071;-72
2023/06/05 08:20:54;;;;;;;8.40;6.60;;;17.00;93.80;;;;;;6242334;23;20083;-72
2023/06/05 08:23:20;;;;;;;9.65;6.63;;;17.10;93.60;;;;;;6240997;23;20728;-71
2023/06/05 08:25:48;;;;;;;10.27;6.50;;;17.10;93.60;;;;;;6241073;23;20001;-71
2023/06/05 08:28:15;;;;;;;8.48;5.63;;;17.20;93.60;;;;;;6215292;23;20012;-72
2023/06/05 08:30:41;;;;;;;8.20;7.18;;;17.40;93.50;;;;;;6242286;23;20012;-72
2023/06/05 08:33:06;;;;;;;10.77;6.55;;;17.50;93.30;;;;;;6241748;23;20383;-72
2023/06/05 08:35:32;;;;;;;9.55;6.40;;;17.50;93.00;;;;;;6240841;23;20092;-72
2023/06/05 08:37:58;;;;;;;7.13;6.05;;;17.60;92.90;;;;;;6242108;23;20008;-72
2023/06/05 08:40:28;;;;;;;12.13;7.18;;;17.60;93.00;;;;;;6241385;23;20000;-72
2023/06/05 08:42:54;;;;;;;8.52;6.43;;;17.80;92.90;;;;;;6241151;23;20497;-70
2023/06/05 08:45:19;;;;;;;7.70;5.45;;;17.90;92.80;;;;;;6241216;23;20039;-71
2023/06/05 08:47:51;;;;;;;9.82;6.82;;;17.90;92.60;;;;;;6239908;23;20007;-71
2023/06/05 08:50:16;;;;;;;8.57;5.65;;;18.00;92.40;;;;;;6240687;23;20007;-71
2023/06/05 08:52:43;;;;;;;9.10;6.22;;;18.10;92.40;;;;;;6241242;23;20084;-70
2023/06/05 08:55:10;;;;;;;5.63;5.05;;;18.10;92.20;;;;;;6214234;23;20011;-70
2023/06/05 08:57:41;;;;;;;5.80;4.75;;;18.20;92.10;;;;;;6241102;23;20088;-70
2023/06/05 09:00:10;;;;;;;8.63;5.82;;;18.30;91.90;;;;;;6241830;23;20008;-70
2023/06/05 09:02:38;;;;;;;6.95;6.30;;;18.30;91.90;;;;;;6242208;23;20053;-70
2023/06/05 09:05:04;;;;;;;9.52;5.35;;;18.40;91.90;;;;;;6242207;23;20088;-70
2023/06/05 09:07:31;;;;;;;8.65;6.50;;;18.50;91.80;;;;;;6240884;23;20091;-71
2023/06/05 09:09:57;;;;;;;9.43;5.38;;;18.60;91.50;;;;;;6241270;23;20000;-71
2023/06/05 09:12:24;;;;;;;9.98;5.93;;;18.60;91.40;;;;;;6241818;23;20429;-71
2023/06/05 09:14:50;;;;;;;12.98;5.97;;;18.70;91.40;;;;;;6241573;23;20075;-70
2023/06/05 09:17:17;;;;;;;8.57;6.18;;;18.80;91.20;;;;;;6242283;23;20000;-71
2023/06/05 09:19:44;;;;;;;11.55;6.47;;;18.70;91.20;;;;;;6240422;23;20395;-71
2023/06/05 09:22:12;;;;;;;10.35;6.22;;;18.90;91.10;;;;;;6242056;23;20065;-71
2023/06/05 09:24:40;;;;;;;9.20;6.15;;;18.90;91.00;;;;;;6241060;23;20102;-71
2023/06/05 09:27:10;;;;;;;8.55;5.22;;;19.00;90.90;;;;;;6241943;23;20408;-71
2023/06/05 09:29:40;;;;;;;9.73;5.70;;;19.10;90.70;;;;;;6240629;23;20015;-71
2023/06/05 09:32:07;;;;;;;6.85;4.35;;;19.20;90.70;;;;;;6242166;23;20076;-71
2023/06/05 09:34:37;;;;;;;7.20;4.93;;;19.30;90.60;;;;;;6240955;23;20045;-71
2023/06/05 09:37:12;;;;;;;8.40;5.45;;;19.40;90.40;;;;;;6240987;23;20146;-72
2023/06/05 09:39:45;;;;;;;5.93;5.22;;;19.50;90.10;;;;;;6213617;23;20039;-73
2023/06/05 09:42:11;;;;;;;6.97;4.93;;;19.50;90.10;;;;;;6239910;23;20004;-73
2023/06/05 09:44:37;;;;;;;7.60;4.90;;;19.50;90.00;;;;;;6240810;23;20023;-73
2023/06/05 09:47:05;;;;;;;7.18;5.20;;;19.60;89.90;;;;;;6239690;23;20292;-73
2023/06/05 09:49:40;;;;;;;6.00;4.90;;;19.70;89.50;;;;;;6241235;23;20014;-73
2023/06/05 09:52:12;;;;;;;7.32;5.70;;;19.70;89.30;;;;;;6240117;23;20054;-73
2023/06/05 09:54:39;;;;;;;11.25;5.63;;;19.80;88.90;;;;;;6213611;23;20087;-73
2023/06/05 09:57:06;;;;;;;5.97;4.18;;;19.90;89.20;;;;;;6241087;23;20058;-73
2023/06/05 09:59:34;;;;;;;9.15;4.72;;;20.10;89.10;;;;;;6240850;23;20422;-73
2023/06/05 10:02:04;;;;;;;8.30;5.13;;;20.20;88.40;;;;;;6238707;23;20004;-73
2023/06/05 10:04:38;;;;;;;5.97;4.93;;;20.20;87.40;;;;;;6240771;23;20129;-73
2023/06/05 10:07:04;;;;;;;8.75;5.18;;;20.30;86.90;;;;;;6240894;23;20011;-74
2023/06/05 10:09:31;;;;;;;8.40;5.53;;;20.30;86.80;;;;;;6240788;23;20035;-74
2023/06/05 10:11:58;;;;;;;4.55;3.90;;;20.40;87.00;;;;;;6240826;23;20008;-74
2023/06/05 10:14:24;;;;;;;5.13;4.40;;;20.50;87.20;;;;;;6212819;23;20090;-72
2023/06/05 10:16:51;;;;;;;8.80;4.22;;;20.60;86.90;;;;;;6240198;23;20034;-73
2023/06/05 10:19:19;;;;;;;6.20;4.15;;;20.70;86.40;;;;;;6241393;23;20070;-74
2023/06/05 10:21:49;;;;;;;6.90;5.05;;;20.80;86.10;;;;;;6213508;23;20345;-73
2023/06/05 10:24:28;;;;;;;12.43;4.85;;;20.90;85.40;;;;;;6212550;23;20441;-73
2023/06/05 10:26:54;;;;;;;8.88;4.90;;;21.00;85.20;;;;;;6242371;23;20008;-73
2023/06/05 10:29:38;;;;;;;5.65;4.82;;;21.00;84.60;;;;;;6242987;23;20000;-73
2023/06/05 10:32:29;;;;;;;5.05;3.70;;;21.00;84.40;;;;;;6215082;23;20465;-73
2023/06/05 10:35:27;;;;;;;8.60;5.25;;;21.20;84.70;;;;;;6239915;23;20074;-73
2023/06/05 10:38:19;;;;;;;6.55;5.47;;;21.20;83.70;;;;;;6239892;23;20010;-73
2023/06/05 10:40:52;;;;;;;8.60;4.45;;;21.30;82.90;;;;;;6240252;23;20004;-72
2023/06/05 10:43:45;;;;;;;6.35;5.00;;;21.30;82.50;;;;;;6242573;23;20004;-73
2023/06/05 10:46:33;;;;;;;5.75;5.03;;;21.30;81.90;;;;;;6213584;23;20051;-72
2023/06/05 10:49:07;;;;;;;5.63;4.50;;;21.30;81.70;;;;;;6240705;23;20444;-72
2023/06/05 10:51:49;;;;;;;4.82;4.28;;;21.20;81.90;;;;;;6213310;23;20039;-72
2023/06/05 10:54:24;;;;;;;8.18;4.50;;;21.30;82.20;;;;;;6240609;23;20004;-73
2023/06/05 10:56:56;;;;;;;5.80;4.45;;;21.40;82.20;;;;;;6239409;23;20302;-73
2023/06/05 10:59:24;;;;;;;6.65;4.82;;;21.40;82.00;;;;;;6240347;23;20020;-72
2023/06/05 11:02:16;;;;;;;9.23;5.40;;;21.50;81.60;;;;;;6240551;23;20000;-73
2023/06/05 11:04:46;;;;;;;7.43;5.57;;;21.70;80.60;;;;;;6240545;23;20004;-72
2023/06/05 11:07:21;;;;;;;5.70;4.28;;;21.70;80.80;;;;;;6238476;23;20000;-73
2023/06/05 11:10:05;;;;;;;8.15;4.40;;;21.70;80.60;;;;;;6240680;23;20000;-73
2023/06/05 11:12:42;;;;;;;8.68;5.18;;;21.80;80.20;;;;;;6240398;23;20339;-73
2023/06/05 11:15:09;;;;;;;5.15;4.65;;;21.80;80.00;;;;;;6240726;23;20027;-73
2023/06/05 11:17:41;;;;;;;8.10;4.70;;;21.80;80.20;;;;;;6239930;23;20035;-73
2023/06/05 11:20:28;;;;;;;5.90;4.20;;;21.90;80.20;;;;;;6239707;23;20322;-73
2023/06/05 11:22:53;;;;;;;5.90;4.53;;;22.00;80.10;;;;;;6212973;23;20062;-72
2023/06/05 11:25:28;;;;;;;5.28;4.60;;;22.10;79.60;;;;;;6240375;23;20000;-73
2023/06/05 11:28:04;;;;;;;7.90;4.95;;;22.20;79.00;;;;;;6240265;23;20411;-72
2023/06/05 11:30:32;;;;;;;6.97;4.57;;;22.10;77.70;;;;;;6239503;23;20091;-73
2023/06/05 11:33:08;;;;;;;8.63;4.65;;;22.00;77.60;;;;;;6213735;23;20008;-73
2023/06/05 11:35:35;;;;;;;9.38;4.68;;;22.00;78.10;;;;;;6240045;23;20071;-73
2023/06/05 11:38:07;;;;;;;6.22;4.00;;;22.00;78.10;;;;;;6240348;23;20076;-73
2023/06/05 11:40:33;;;;;;;11.25;4.55;;;22.10;77.40;;;;;;6238543;23;20015;-73
2023/06/05 11:43:05;;;;;;;5.15;4.10;;;22.10;77.30;;;;;;6239816;23;20009;-73
2023/06/05 11:45:36;;;;;;;7.28;4.70;;;22.20;77.00;;;;;;6240754;23;20099;-73
2023/06/05 11:48:09;;;;;;;4.82;3.20;;;22.20;77.00;;;;;;6241299;23;20058;-74
2023/06/05 11:50:35;;;;;;;5.85;4.35;;;22.20;76.30;;;;;;6239292;23;20000;-73
2023/06/05 11:53:10;;;;;;;6.38;5.20;;;22.20;75.90;;;;;;6239693;23;20030;-73
2023/06/05 11:56:45;;;;;;;8.45;5.35;;;22.30;75.70;;;;;;6240804;23;20039;-73
2023/06/05 11:58:39;;;;;;;7.28;4.65;;;22.30;75.20;;;;;;6214519;23;20827;-73
2023/06/05 12:01:17;;;;;;;4.97;4.45;;;22.30;75.60;;;;;;6240217;23;20026;-73
2023/06/05 12:03:45;;;;;;;10.50;7.80;;;22.40;75.70;;;;;;6238979;23;20004;-72
2023/06/05 12:06:14;;;;;;;9.15;6.90;;;22.50;74.80;;;;;;6239867;23;20162;-73
2023/06/05 12:08:40;;;;;;;8.95;6.95;;;22.50;74.50;;;;;;6240302;23;19996;-72
2023/06/05 12:11:23;;;;;;;9.95;6.88;;;22.60;74.80;;;;;;6241027;23;20004;-73
2023/06/05 12:13:51;;;;;;;4.97;3.95;;;22.60;74.20;;;;;;6239922;23;20000;-72
2023/06/05 12:16:18;;;;;;;7.10;4.40;;;22.60;73.60;;;;;;6241344;23;20086;-71
2023/06/05 12:18:45;;;;;;;8.50;4.50;;;22.60;72.90;;;;;;6241194;23;20004;-72
2023/06/05 12:21:22;;;;;;;8.07;4.25;;;22.60;72.90;;;;;;6241371;23;20006;-72
2023/06/05 12:23:48;;;;;;;5.43;4.13;;;22.60;72.80;;;;;;6240492;23;20024;-73
2023/06/05 12:26:15;;;;;;;6.50;5.07;;;22.70;72.70;;;;;;6241165;23;20103;-73
2023/06/05 12:28:42;;;;;;;9.02;5.65;;;22.70;72.70;;;;;;6242027;23;20072;-74
2023/06/05 12:31:07;;;;;;;9.35;4.97;;;22.80;73.10;;;;;;6242215;23;20028;-73
2023/06/05 12:33:46;;;;;;;8.15;4.88;;;22.90;72.80;;;;;;6241495;23;20003;-73
2023/06/05 12:36:12;;;;;;;8.07;3.75;;;23.00;71.60;;;;;;6240266;23;20088;-72
2023/06/05 12:38:41;;;;;;;8.30;6.03;;;23.00;71.60;;;;;;6241449;23;20004;-73
2023/06/05 12:41:10;;;;;;;7.28;4.72;;;23.10;71.50;;;;;;6241810;23;20007;-72
2023/06/05 12:43:36;;;;;;;5.00;4.10;;;23.10;70.80;;;;;;6242358;23;20000;-72
2023/06/05 12:46:02;;;;;;;6.03;3.53;;;23.10;70.60;;;;;;6240612;23;20332;-72